Time;durP1;ratioP1;P1;durP2;ratioP2;P2;SDS_P1;SDS_P2;PMS_P1;PMS_P2;Temp;Humidity;BMP_temperature;BMP_pressure;BME280_temperature;BME280_humidity;BME280_pressure;Samples;Min_cycle;Max_cycle;Signal;HPM_P1;HPM_P2
2021/06/04 00:01:53;;;;;;;8.77;7.87;;;19.50;99.90;;;;;;5096027;28;20477;-88
2021/06/04 00:04:19;;;;;;;9.80;7.97;;;19.50;99.90;;;;;;5096202;28;20443;-88
2021/06/04 00:06:46;;;;;;;7.80;7.10;;;19.40;99.90;;;;;;5096020;28;20834;-88
2021/06/04 00:09:15;;;;;;;8.83;7.87;;;19.40;99.90;;;;;;5096376;28;20445;-88
2021/06/04 00:11:44;;;;;;;9.20;8.20;;;19.30;99.90;;;;;;5099770;28;20467;-87
2021/06/04 00:14:14;;;;;;;8.17;7.47;;;19.30;99.90;;;;;;5107525;28;20464;-87
2021/06/04 00:16:45;;;;;;;9.13;8.40;;;19.40;99.90;;;;;;5104407;28;20442;-88
2021/06/04 00:19:14;;;;;;;8.77;8.07;;;19.30;99.90;;;;;;5097544;28;20454;-88
2021/06/04 00:21:45;;;;;;;8.40;7.70;;;19.20;99.90;;;;;;5096657;28;20470;-87
2021/06/04 00:24:13;;;;;;;9.07;8.17;;;19.20;99.90;;;;;;5096263;28;20446;-88
2021/06/04 00:26:42;;;;;;;8.87;8.07;;;19.20;99.90;;;;;;5097268;28;20451;-88
2021/06/04 00:29:09;;;;;;;9.40;8.53;;;19.10;99.90;;;;;;5118243;28;20468;-87
2021/06/04 00:31:45;;;;;;;8.83;8.13;;;19.00;99.90;;;;;;5120730;28;20453;-87
2021/06/04 00:34:13;;;;;;;8.83;7.93;;;19.10;99.90;;;;;;5120727;28;20431;-86
2021/06/04 00:36:40;;;;;;;9.37;8.53;;;19.10;99.90;;;;;;5120153;28;20443;-86
2021/06/04 00:39:07;;;;;;;10.00;9.00;;;19.10;99.90;;;;;;5121107;28;20470;-87
2021/06/04 00:41:39;;;;;;;10.13;8.47;;;19.10;99.90;;;;;;5121042;28;20446;-86
2021/06/04 00:44:05;;;;;;;8.60;7.90;;;19.10;99.90;;;;;;5120739;28;20429;-86
2021/06/04 00:46:32;;;;;;;8.60;7.80;;;19.00;99.90;;;;;;5120265;28;20458;-85
2021/06/04 00:49:01;;;;;;;9.23;8.33;;;19.00;99.90;;;;;;5117174;28;20460;-87
2021/06/04 00:51:33;;;;;;;8.40;7.70;;;19.00;99.90;;;;;;5101320;28;20467;-87
2021/06/04 00:54:01;;;;;;;9.10;8.37;;;19.00;99.90;;;;;;5097158;28;21038;-88
2021/06/04 00:56:30;;;;;;;9.33;8.37;;;18.90;99.90;;;;;;5097609;28;20446;-87
2021/06/04 00:58:57;;;;;;;10.20;9.20;;;18.90;99.90;;;;;;5096516;28;20454;-87
2021/06/04 01:01:29;;;;;;;9.50;8.70;;;18.90;99.90;;;;;;5097666;28;20470;-87
2021/06/04 01:04:01;;;;;;;9.07;8.27;;;18.90;99.90;;;;;;5096775;28;20454;-88
2021/06/04 01:06:34;;;;;;;9.60;8.60;;;18.90;99.90;;;;;;5096681;28;20482;-88
2021/06/04 01:09:17;;;;;;;10.63;9.63;;;18.90;99.90;;;;;;5095323;28;20465;-89
2021/06/04 01:11:54;;;;;;;9.23;8.43;;;18.90;99.90;;;;;;5095593;28;20451;-88
2021/06/04 01:14:28;;;;;;;10.00;9.00;;;18.90;99.90;;;;;;5096244;28;20864;-89
2021/06/04 01:17:10;;;;;;;10.03;9.20;;;18.80;99.90;;;;;;5095079;28;20448;-88
2021/06/04 01:19:47;;;;;;;10.80;10.00;;;18.80;99.90;;;;;;5095444;28;20449;-88
2021/06/04 01:22:23;;;;;;;9.10;8.20;;;18.60;99.90;;;;;;5102411;28;20469;-87
2021/06/04 01:25:10;;;;;;;9.03;8.23;;;18.70;99.90;;;;;;5113535;28;20807;-88
2021/06/04 01:27:42;;;;;;;9.33;8.60;;;18.70;99.90;;;;;;5094733;28;20834;-89
2021/06/04 01:30:19;;;;;;;8.50;7.70;;;18.70;99.90;;;;;;5097998;28;20478;-88
2021/06/04 01:32:46;;;;;;;9.50;8.67;;;18.70;99.90;;;;;;5096191;28;20450;-87
2021/06/04 01:35:17;;;;;;;9.80;8.80;;;18.70;99.90;;;;;;5095405;28;20450;-88
2021/06/04 01:37:44;;;;;;;9.47;8.57;;;18.60;99.90;;;;;;5094714;28;20454;-88
2021/06/04 01:40:17;;;;;;;8.53;7.47;;;18.70;99.90;;;;;;5093807;28;20992;-88
2021/06/04 01:42:47;;;;;;;9.60;8.80;;;18.60;99.90;;;;;;5095010;28;20443;-88
2021/06/04 01:45:19;;;;;;;9.40;8.50;;;18.60;99.90;;;;;;5099029;28;20478;-88
2021/06/04 01:47:50;;;;;;;9.30;8.50;;;18.60;99.90;;;;;;5095044;28;20438;-88
2021/06/04 01:50:21;;;;;;;9.70;8.80;;;18.50;99.90;;;;;;5093908;28;20490;-88
2021/06/04 01:52:50;;;;;;;11.23;10.33;;;18.50;99.90;;;;;;5095257;28;20536;-89
2021/06/04 01:55:21;;;;;;;8.93;8.13;;;18.50;99.90;;;;;;5098298;28;20453;-87
2021/06/04 01:57:51;;;;;;;8.97;8.27;;;18.50;99.90;;;;;;5116060;28;20448;-88
2021/06/04 02:00:21;;;;;;;9.30;8.50;;;18.40;99.90;;;;;;5109623;28;20462;-88
2021/06/04 02:02:48;;;;;;;10.10;9.40;;;18.40;99.90;;;;;;5107562;28;20442;-87
2021/06/04 02:05:17;;;;;;;9.70;8.90;;;18.30;99.90;;;;;;5117915;28;20462;-87
2021/06/04 02:07:44;;;;;;;10.27;9.17;;;18.20;99.90;;;;;;5106230;28;20449;-88
2021/06/04 02:10:13;;;;;;;11.83;8.43;;;18.30;99.90;;;;;;5094015;28;20470;-88
2021/06/04 02:12:40;;;;;;;8.70;8.00;;;18.30;99.90;;;;;;5095190;28;20446;-88
2021/06/04 02:15:13;;;;;;;9.83;9.13;;;18.30;99.90;;;;;;5110760;28;20431;-88
2021/06/04 02:17:48;;;;;;;9.33;8.53;;;18.30;99.90;;;;;;5112808;28;20438;-88
2021/06/04 02:20:20;;;;;;;9.47;8.67;;;18.30;99.90;;;;;;5094520;28;20466;-88
2021/06/04 02:22:57;;;;;;;8.73;7.93;;;18.20;99.90;;;;;;5093355;28;20450;-88
2021/06/04 02:25:33;;;;;;;9.50;8.60;;;18.20;99.90;;;;;;5093162;28;20749;-88
2021/06/04 02:28:04;;;;;;;11.20;10.03;;;18.20;99.90;;;;;;5093013;28;20453;-88
2021/06/04 02:30:36;;;;;;;10.40;9.60;;;18.20;99.90;;;;;;5093591;28;20478;-88
2021/06/04 02:33:08;;;;;;;10.10;9.30;;;18.20;99.90;;;;;;5092959;28;20443;-88
2021/06/04 02:35:38;;;;;;;10.00;9.00;;;18.20;99.90;;;;;;5093009;28;20450;-87
2021/06/04 02:38:15;;;;;;;9.07;8.37;;;18.20;99.90;;;;;;5102781;28;20442;-88
2021/06/04 02:40:45;;;;;;;12.90;9.67;;;18.10;99.90;;;;;;5110054;28;20961;-88
2021/06/04 02:43:14;;;;;;;10.37;9.40;;;18.10;99.90;;;;;;5100690;28;20454;-88
2021/06/04 02:45:46;;;;;;;10.30;9.20;;;18.10;99.90;;;;;;5100323;28;20478;-88
2021/06/04 02:48:15;;;;;;;9.40;8.50;;;18.00;99.90;;;;;;5093942;28;20458;-89
2021/06/04 02:50:45;;;;;;;9.90;9.07;;;18.10;99.90;;;;;;5093656;28;20462;-88
2021/06/04 02:53:22;;;;;;;9.60;8.90;;;18.00;99.90;;;;;;5093061;28;20533;-89
2021/06/04 02:56:05;;;;;;;10.80;9.70;;;18.00;99.90;;;;;;5098053;28;20445;-89
2021/06/04 02:58:32;;;;;;;10.53;9.53;;;18.00;99.90;;;;;;5093277;28;20814;-88
2021/06/04 03:00:59;;;;;;;9.70;8.97;;;18.00;99.90;;;;;;5078661;28;20456;-89
2021/06/04 03:03:26;;;;;;;10.30;9.30;;;18.10;99.90;;;;;;5105473;28;20443;-89
2021/06/04 03:05:52;;;;;;;10.87;8.77;;;18.10;99.90;;;;;;5106174;28;20478;-88
2021/06/04 03:08:21;;;;;;;10.40;9.33;;;18.10;99.90;;;;;;5097227;28;20472;-89
2021/06/04 03:10:50;;;;;;;9.90;9.10;;;18.00;99.90;;;;;;5098039;28;20501;-89
2021/06/04 03:13:23;;;;;;;11.97;9.50;;;18.00;99.90;;;;;;5097264;28;20473;-88
2021/06/04 03:15:52;;;;;;;9.13;8.40;;;18.10;99.90;;;;;;5097302;28;20446;-89
2021/06/04 03:18:26;;;;;;;10.00;9.20;;;18.10;99.90;;;;;;5096714;28;20458;-90
2021/06/04 03:20:53;;;;;;;10.97;9.90;;;18.00;99.90;;;;;;5096976;28;20465;-90
2021/06/04 03:23:23;;;;;;;10.23;9.43;;;17.90;99.90;;;;;;5117607;28;20426;-89
2021/06/04 03:25:53;;;;;;;12.07;11.03;;;17.90;99.90;;;;;;5097597;28;20481;-89
2021/06/04 03:28:23;;;;;;;11.90;10.80;;;17.90;99.90;;;;;;5097107;28;20451;-90
2021/06/04 03:30:50;;;;;;;11.27;10.17;;;17.90;99.90;;;;;;5111558;28;20477;-89
2021/06/04 03:33:21;;;;;;;11.30;10.37;;;17.90;99.90;;;;;;5115247;28;20438;-90
2021/06/04 03:35:48;;;;;;;14.40;9.53;;;18.00;99.90;;;;;;5097697;28;20466;-90
2021/06/04 03:38:16;;;;;;;10.40;9.60;;;17.90;99.90;;;;;;5097322;28;20491;-90
2021/06/04 03:40:43;;;;;;;12.17;10.73;;;17.90;99.90;;;;;;5096539;28;20475;-90
2021/06/04 03:43:13;;;;;;;11.40;10.40;;;17.90;99.90;;;;;;5101949;28;20829;-89
2021/06/04 03:45:42;;;;;;;11.00;10.00;;;18.00;99.90;;;;;;5099911;28;20478;-90
2021/06/04 03:48:11;;;;;;;11.33;10.33;;;18.00;99.90;;;;;;5096346;28;20443;-90
2021/06/04 03:50:39;;;;;;;11.50;10.40;;;18.00;99.90;;;;;;5096293;28;20455;-90
2021/06/04 03:53:09;;;;;;;11.57;10.50;;;18.10;99.90;;;;;;5096324;28;20442;-90
2021/06/04 03:55:36;;;;;;;13.57;10.20;;;18.10;99.90;;;;;;5096964;28;20448;-90
2021/06/04 03:58:04;;;;;;;12.27;11.07;;;18.20;99.90;;;;;;5104862;28;20501;-89
2021/06/04 04:00:35;;;;;;;10.63;9.50;;;18.20;99.90;;;;;;5107490;28;20491;-90
2021/06/04 04:03:02;;;;;;;11.13;10.23;;;18.30;99.90;;;;;;5108385;28;20442;-90
2021/06/04 04:05:31;;;;;;;11.53;10.33;;;18.30;99.90;;;;;;5104291;28;20485;-88
2021/06/04 04:07:59;;;;;;;10.80;10.00;;;18.30;99.90;;;;;;5096337;28;20505;-90
2021/06/04 04:10:27;;;;;;;10.60;9.70;;;18.40;99.90;;;;;;5096393;28;20469;-90
2021/06/04 04:12:54;;;;;;;12.13;11.03;;;18.30;99.90;;;;;;5096084;28;20497;-90
2021/06/04 04:15:23;;;;;;;12.27;11.13;;;18.40;99.90;;;;;;5096655;28;20448;-90
2021/06/04 04:17:51;;;;;;;11.47;10.40;;;18.40;99.90;;;;;;5096350;28;20458;-89
2021/06/04 04:20:27;;;;;;;12.23;11.00;;;18.50;99.90;;;;;;5095783;28;20473;-90
2021/06/04 04:22:54;;;;;;;11.97;10.70;;;18.50;99.90;;;;;;5095962;28;20452;-90
2021/06/04 04:25:23;;;;;;;11.93;11.03;;;18.50;99.90;;;;;;5095396;28;20479;-90
2021/06/04 04:27:49;;;;;;;12.87;11.77;;;18.60;99.90;;;;;;5096686;28;20816;-90
2021/06/04 04:39:39;;;;;;;11.57;10.67;;;19.10;99.90;;;;;;4993824;28;20476;-89
2021/06/04 04:46:25;;;;;;;12.50;11.40;;;19.40;99.90;;;;;;4998458;28;20490;-89
2021/06/04 04:56:58;;;;;;;10.30;9.50;;;19.70;99.90;;;;;;4975474;28;20830;-89
2021/06/04 04:59:52;;;;;;;10.87;10.00;;;19.80;99.90;;;;;;4933512;28;20443;-88
2021/06/04 05:02:27;;;;;;;11.63;10.53;;;19.90;99.90;;;;;;5002885;28;20996;-88
2021/06/04 05:16:15;;;;;;;10.87;9.97;;;20.00;99.90;;;;;;5037998;27;20512;-88
2021/06/04 05:19:23;;;;;;;11.50;10.33;;;20.10;99.90;;;;;;5110081;27;20465;-89
2021/06/04 05:22:30;;;;;;;10.40;9.40;;;20.00;99.90;;;;;;5142129;27;20475;-88
2021/06/04 05:25:46;;;;;;;12.80;9.93;;;20.00;99.90;;;;;;5119985;28;20428;-90
2021/06/04 05:36:38;;;;;;;9.60;8.60;;;20.20;99.90;;;;;;4992204;28;20440;-89
2021/06/04 05:39:54;;;;;;;9.70;8.87;;;20.30;99.90;;;;;;4975912;28;20437;-89
2021/06/04 05:53:56;;;;;;;;;;;;;;;;;;;;;
2021/06/04 05:59:47;;;;;;;10.23;9.17;;;22.20;99.90;;;;;;4860014;29;20458;-86
2021/06/04 06:02:13;;;;;;;14.17;10.63;;;22.40;99.90;;;;;;5012754;28;20462;-87
2021/06/04 06:04:41;;;;;;;9.33;8.60;;;22.80;99.90;;;;;;5092973;28;20443;-86
2021/06/04 06:07:08;;;;;;;9.73;8.83;;;23.60;99.90;;;;;;5121938;27;20498;-87
2021/06/04 06:09:34;;;;;;;9.37;8.57;;;24.60;99.90;;;;;;5120798;27;20440;-87
2021/06/04 06:12:00;;;;;;;10.57;9.63;;;25.60;98.20;;;;;;5121122;27;20509;-87
2021/06/04 06:14:26;;;;;;;10.80;9.90;;;26.10;95.80;;;;;;5133867;27;20428;-86
2021/06/04 06:16:54;;;;;;;10.80;8.67;;;26.50;93.80;;;;;;5121823;27;20430;-87
2021/06/04 06:19:21;;;;;;;9.63;8.70;;;26.00;93.10;;;;;;5114622;27;20831;-87
2021/06/04 06:21:50;;;;;;;9.00;8.30;;;25.50;94.20;;;;;;5128873;27;20465;-87
2021/06/04 06:24:17;;;;;;;10.10;9.20;;;25.10;94.60;;;;;;5122128;27;20815;-86
2021/06/04 06:26:44;;;;;;;9.53;7.60;;;24.90;95.30;;;;;;5121278;28;20469;-84
2021/06/04 06:29:12;;;;;;;9.90;9.00;;;24.80;95.50;;;;;;5132493;28;20459;-84
2021/06/04 06:31:41;;;;;;;11.10;10.10;;;24.80;95.50;;;;;;5127919;28;20868;-84
2021/06/04 06:34:10;;;;;;;8.63;8.03;;;24.80;95.90;;;;;;5126025;27;20445;-84
2021/06/04 06:36:40;;;;;;;9.07;8.27;;;25.10;95.70;;;;;;5122070;28;20438;-84
2021/06/04 06:39:09;;;;;;;8.87;8.07;;;25.80;94.50;;;;;;5129775;28;20475;-84
2021/06/04 06:41:36;;;;;;;7.90;7.30;;;26.70;93.10;;;;;;5142568;28;20490;-85
2021/06/04 06:44:02;;;;;;;7.60;7.10;;;27.00;91.60;;;;;;5127830;28;20446;-86
2021/06/04 06:46:28;;;;;;;8.37;7.10;;;27.90;90.30;;;;;;5114150;28;20488;-87
2021/06/04 06:48:55;;;;;;;8.17;6.70;;;28.30;87.10;;;;;;5114924;28;20454;-86
2021/06/04 06:51:27;;;;;;;7.60;7.00;;;28.70;84.20;;;;;;5114588;28;20469;-86
2021/06/04 06:53:56;;;;;;;8.00;6.73;;;29.00;82.80;;;;;;5129863;28;20525;-86
2021/06/04 06:56:23;;;;;;;6.57;5.97;;;28.60;80.20;;;;;;5134312;28;20913;-86
2021/06/04 06:58:55;;;;;;;6.87;6.37;;;27.90;80.80;;;;;;5118913;28;20517;-88
2021/06/04 07:01:22;;;;;;;7.03;6.53;;;27.20;83.40;;;;;;5114807;28;20462;-88
2021/06/04 07:03:49;;;;;;;6.43;5.40;;;26.80;85.40;;;;;;5149426;28;20432;-88
2021/06/04 07:06:18;;;;;;;6.00;5.60;;;26.50;86.50;;;;;;5148034;28;20477;-88
2021/06/04 07:08:47;;;;;;;6.63;6.03;;;26.20;86.90;;;;;;5122238;28;20532;-88
2021/06/04 07:11:15;;;;;;;6.90;5.70;;;26.00;87.80;;;;;;5115109;28;20476;-88
2021/06/04 07:13:42;;;;;;;5.90;5.27;;;25.60;88.40;;;;;;5126852;28;20996;-88
2021/06/04 07:16:10;;;;;;;6.00;5.50;;;25.40;88.20;;;;;;5137175;28;20476;-88
2021/06/04 07:18:39;;;;;;;6.33;5.27;;;25.20;89.00;;;;;;5152287;28;20445;-88
2021/06/04 07:21:08;;;;;;;7.30;5.27;;;25.10;89.90;;;;;;5135738;28;20469;-88
2021/06/04 07:23:35;;;;;;;5.50;5.03;;;24.90;90.00;;;;;;5132652;28;20535;-88
2021/06/04 07:26:06;;;;;;;6.80;6.13;;;24.80;90.00;;;;;;5136300;28;20491;-88
2021/06/04 07:28:35;;;;;;;5.87;5.30;;;24.90;90.20;;;;;;5153946;27;20445;-86
2021/06/04 07:31:05;;;;;;;5.20;4.70;;;24.90;90.20;;;;;;5151525;28;20993;-88
2021/06/04 07:33:34;;;;;;;5.30;4.47;;;24.90;90.40;;;;;;5119258;28;20452;-88
2021/06/04 07:36:04;;;;;;;5.00;4.50;;;24.90;90.10;;;;;;5115210;28;20459;-88
2021/06/04 07:38:30;;;;;;;6.00;5.40;;;25.00;90.00;;;;;;5117065;28;20437;-88
2021/06/04 07:40:58;;;;;;;5.00;4.50;;;25.10;89.50;;;;;;5117344;28;20487;-87
2021/06/04 07:43:29;;;;;;;5.27;4.57;;;25.10;88.40;;;;;;5135960;27;20511;-88
2021/06/04 07:45:55;;;;;;;5.47;5.00;;;25.20;89.20;;;;;;5138577;27;20503;-88
2021/06/04 07:48:23;;;;;;;5.00;4.60;;;25.50;89.00;;;;;;5123854;27;20532;-87
2021/06/04 07:50:57;;;;;;;4.80;4.40;;;25.80;87.70;;;;;;5121762;28;20488;-87
2021/06/04 07:53:27;;;;;;;4.63;4.17;;;26.10;85.40;;;;;;5134616;27;20521;-86
2021/06/04 07:55:55;;;;;;;3.67;3.37;;;26.40;83.20;;;;;;5137893;27;20603;-87
2021/06/04 07:58:22;;;;;;;5.17;4.70;;;26.60;81.00;;;;;;5131419;27;20623;-85
2021/06/04 08:00:50;;;;;;;4.90;4.40;;;26.90;80.30;;;;;;5122851;28;20475;-86
2021/06/04 08:03:21;;;;;;;7.47;5.70;;;27.70;79.00;;;;;;5121081;27;20486;-87
2021/06/04 08:05:47;;;;;;;8.63;6.83;;;28.50;80.10;;;;;;5117881;28;20955;-87
2021/06/04 08:08:14;;;;;;;6.73;6.03;;;29.40;79.10;;;;;;5134560;27;20871;-88
2021/06/04 08:10:41;;;;;;;6.80;6.30;;;30.70;75.90;;;;;;5148758;27;20465;-87
2021/06/04 08:13:13;;;;;;;7.00;6.40;;;32.10;70.30;;;;;;5122751;28;20445;-87
2021/06/04 08:15:44;;;;;;;6.23;5.77;;;32.90;66.00;;;;;;5129395;27;20636;-87
2021/06/04 08:18:20;;;;;;;6.03;5.43;;;33.50;63.30;;;;;;5125985;27;20449;-87
2021/06/04 08:23:39;;;;;;;6.20;5.20;;;36.00;56.40;;;;;;5097949;28;20493;-87
2021/06/04 08:26:51;;;;;;;8.73;4.60;;;35.70;53.80;;;;;;5099346;28;20555;-87
2021/06/04 08:29:25;;;;;;;5.87;5.00;;;36.10;52.60;;;;;;5112304;28;20438;-87
2021/06/04 08:32:19;;;;;;;5.20;4.80;;;35.60;52.10;;;;;;5108671;28;20458;-88
2021/06/04 08:35:29;;;;;;;5.60;5.20;;;34.30;54.30;;;;;;5084933;28;21021;-89
2021/06/04 08:42:04;;;;;;;5.77;5.23;;;35.40;53.10;;;;;;5059676;28;20542;-88
2021/06/04 09:05:37;;;;;;;4.57;4.17;;;40.10;42.70;;;;;;4875874;29;20481;-88
2021/06/04 09:25:52;;;;;;;4.60;4.20;;;37.10;47.10;;;;;;4957620;28;20445;-88
2021/06/04 09:42:36;;;;;;;4.40;3.77;;;40.10;42.90;;;;;;4850870;29;20472;-90
2021/06/04 09:49:19;;;;;;;4.20;3.80;;;41.60;38.90;;;;;;5123166;28;20816;-88
2021/06/04 09:57:39;;;;;;;3.97;3.60;;;41.80;39.40;;;;;;5066133;28;20533;-88
2021/06/04 10:01:07;;;;;;;4.73;4.43;;;42.40;38.50;;;;;;5099567;28;20924;-87
2021/06/04 10:03:49;;;;;;;4.37;3.80;;;42.60;38.60;;;;;;5057284;28;21043;-87
2021/06/04 10:13:33;;;;;;;3.80;3.50;;;41.70;40.10;;;;;;5007828;28;20516;-88
2021/06/04 10:17:13;;;;;;;;;;;;;;;;;;;;;
2021/06/04 10:19:51;;;;;;;4.97;3.60;;;40.60;40.70;;;;;;5058088;28;20925;-88
2021/06/04 10:22:51;;;;;;;4.60;3.73;;;41.50;39.30;;;;;;5056457;28;20507;-87
2021/06/04 10:28:59;;;;;;;3.67;3.23;;;42.80;37.40;;;;;;5051571;28;20460;-89
2021/06/04 10:31:56;;;;;;;3.90;3.57;;;43.10;35.70;;;;;;5053180;28;20547;-88
2021/06/04 10:34:48;;;;;;;3.80;3.43;;;42.50;36.30;;;;;;5114138;22;20495;-86
2021/06/04 10:37:19;;;;;;;4.00;3.60;;;41.70;37.90;;;;;;5095024;28;20434;-87
2021/06/04 10:39:49;;;;;;;3.40;3.10;;;41.70;37.10;;;;;;5094589;28;20438;-87
2021/06/04 10:42:27;;;;;;;5.57;2.90;;;42.20;37.20;;;;;;5096118;28;21009;-87
2021/06/04 10:45:03;;;;;;;3.60;3.37;;;43.50;35.80;;;;;;5097215;28;20442;-87
2021/06/04 10:47:41;;;;;;;4.40;4.00;;;44.60;33.50;;;;;;5098257;28;20476;-86
2021/06/04 10:50:15;;;;;;;4.37;3.97;;;42.80;35.20;;;;;;5109625;28;20450;-86
2021/06/04 10:52:55;;;;;;;3.73;3.43;;;41.40;36.20;;;;;;5094783;28;20474;-87
2021/06/04 10:55:26;;;;;;;4.83;4.43;;;39.30;39.60;;;;;;5104698;28;20438;-86
2021/06/04 10:58:03;;;;;;;4.33;3.90;;;37.30;41.50;;;;;;5103016;28;20445;-86
2021/06/04 11:00:37;;;;;;;4.50;4.17;;;35.70;44.70;;;;;;5094890;28;20450;-86
2021/06/04 11:03:13;;;;;;;6.33;4.17;;;33.80;47.60;;;;;;5109344;28;20560;-86
2021/06/04 11:05:51;;;;;;;4.60;4.20;;;32.10;51.10;;;;;;5112882;28;20429;-86
2021/06/04 11:08:25;;;;;;;7.90;4.30;;;31.20;53.50;;;;;;5116239;28;20453;-86
2021/06/04 11:10:57;;;;;;;6.70;4.00;;;30.50;55.20;;;;;;5118786;28;20441;-86
2021/06/04 11:13:33;;;;;;;5.97;4.17;;;30.00;56.70;;;;;;5137586;28;20454;-86
2021/06/04 11:16:02;;;;;;;4.70;4.30;;;29.80;58.20;;;;;;5131048;28;20441;-86
2021/06/04 11:18:39;;;;;;;4.10;3.70;;;29.70;59.20;;;;;;5117916;28;20438;-86
2021/06/04 11:21:14;;;;;;;8.03;4.23;;;29.30;58.40;;;;;;5119579;28;20477;-86
2021/06/04 11:23:48;;;;;;;5.70;3.80;;;28.80;59.20;;;;;;5117379;28;20973;-86
2021/06/04 11:26:20;;;;;;;6.13;4.13;;;28.50;61.90;;;;;;5117248;28;20484;-86
2021/06/04 11:28:54;;;;;;;3.73;3.33;;;28.20;62.40;;;;;;5117770;28;20441;-86
2021/06/04 11:31:34;;;;;;;4.77;4.27;;;28.00;64.60;;;;;;5118077;28;20456;-86
2021/06/04 11:34:05;;;;;;;6.83;4.60;;;27.80;66.50;;;;;;5117424;28;20471;-86
2021/06/04 11:36:46;;;;;;;8.60;4.90;;;27.40;73.10;;;;;;5117263;28;20445;-86
2021/06/04 11:39:19;;;;;;;7.70;6.13;;;27.10;79.80;;;;;;5119089;28;20449;-87
2021/06/04 11:41:50;;;;;;;14.27;8.77;;;26.10;89.20;;;;;;5115180;28;20454;-88
2021/06/04 11:44:28;;;;;;;12.07;8.70;;;25.00;99.90;;;;;;5102950;28;20470;-87
2021/06/04 11:47:28;;;;;;;7.33;6.30;;;24.20;99.90;;;;;;5098980;28;20577;-87
2021/06/04 11:50:31;;;;;;;7.40;6.60;;;23.40;99.90;;;;;;5107328;28;20515;-86
2021/06/04 11:53:21;;;;;;;9.07;6.63;;;22.70;99.90;;;;;;5112852;28;20821;-85
2021/06/04 11:55:48;;;;;;;8.00;6.80;;;22.60;99.90;;;;;;5101616;28;20558;-84
2021/06/04 11:58:34;;;;;;;8.63;7.17;;;22.50;99.90;;;;;;5118625;28;20415;-84
2021/06/04 12:01:30;;;;;;;8.93;6.07;;;22.40;99.90;;;;;;5113344;28;20448;-86
2021/06/04 12:04:06;;;;;;;9.10;7.30;;;22.20;99.90;;;;;;5110645;28;20450;-85
2021/06/04 12:06:51;;;;;;;9.50;7.10;;;22.00;99.90;;;;;;5120505;28;20481;-85
2021/06/04 12:09:45;;;;;;;11.30;7.60;;;21.90;99.90;;;;;;5116834;28;20439;-86
2021/06/04 12:12:57;;;;;;;11.90;7.93;;;22.00;99.90;;;;;;5098694;28;20550;-86
2021/06/04 12:15:49;;;;;;;7.60;6.80;;;22.00;99.90;;;;;;5064957;28;20452;-86
2021/06/04 12:18:51;;;;;;;7.97;5.70;;;22.00;99.90;;;;;;5079262;28;20437;-86
2021/06/04 12:21:54;;;;;;;11.23;6.90;;;22.00;99.90;;;;;;5125436;28;20441;-87
2021/06/04 12:25:00;;;;;;;9.13;6.27;;;22.20;99.90;;;;;;5124377;28;21003;-87
2021/06/04 12:28:06;;;;;;;9.67;5.83;;;22.20;99.90;;;;;;5125584;28;20547;-86
2021/06/04 12:31:03;;;;;;;8.13;6.90;;;22.30;99.90;;;;;;5119540;28;20445;-86
2021/06/04 12:33:40;;;;;;;6.80;5.77;;;22.50;99.90;;;;;;5095956;28;20493;-87
2021/06/04 12:36:55;;;;;;;8.63;7.77;;;22.60;99.90;;;;;;5117548;28;20430;-86
2021/06/04 12:39:47;;;;;;;7.37;6.67;;;22.70;99.90;;;;;;5121867;28;20537;-86
2021/06/04 12:42:19;;;;;;;8.27;7.57;;;22.80;99.90;;;;;;5120782;28;20449;-87
2021/06/04 12:44:56;;;;;;;11.93;6.37;;;22.70;99.90;;;;;;5123046;28;20770;-88
2021/06/04 12:47:27;;;;;;;7.07;6.43;;;22.70;99.90;;;;;;5117912;28;20506;-87
2021/06/04 12:50:03;;;;;;;6.57;6.00;;;22.60;99.90;;;;;;5118284;28;20452;-87
2021/06/04 12:52:29;;;;;;;12.77;8.17;;;22.60;99.90;;;;;;5105547;28;20435;-87
2021/06/04 12:55:15;;;;;;;15.10;7.17;;;22.70;99.90;;;;;;5095715;28;20878;-87
2021/06/04 12:57:42;;;;;;;10.90;8.50;;;22.40;99.90;;;;;;5097120;28;20446;-87
2021/06/04 13:00:28;;;;;;;14.87;9.13;;;22.20;99.90;;;;;;5095304;28;20465;-88
2021/06/04 13:03:06;;;;;;;17.20;10.53;;;21.90;99.90;;;;;;5115201;28;20454;-87
2021/06/04 13:05:33;;;;;;;14.00;10.10;;;21.90;99.90;;;;;;5116494;28;20429;-85
2021/06/04 13:08:06;;;;;;;13.00;9.93;;;21.90;99.90;;;;;;5116223;28;20473;-87
2021/06/04 13:10:36;;;;;;;11.60;9.77;;;22.00;99.90;;;;;;5117992;28;20464;-87
2021/06/04 13:13:15;;;;;;;13.73;9.57;;;22.10;99.90;;;;;;5099908;28;20465;-87
2021/06/04 13:15:42;;;;;;;12.03;10.20;;;22.30;99.90;;;;;;5096468;28;20798;-87
2021/06/04 13:18:15;;;;;;;20.43;14.53;;;22.50;99.90;;;;;;5112471;28;20447;-86
2021/06/04 13:20:44;;;;;;;18.23;13.90;;;22.70;99.90;;;;;;5106266;28;20536;-87
2021/06/04 13:23:18;;;;;;;14.43;11.17;;;23.00;99.90;;;;;;5096783;28;20459;-87
2021/06/04 13:25:47;;;;;;;13.90;10.53;;;23.40;99.90;;;;;;5097057;28;20447;-88
2021/06/04 13:28:17;;;;;;;13.97;12.60;;;23.80;99.90;;;;;;5097809;28;20968;-88
2021/06/04 13:30:48;;;;;;;14.80;9.63;;;24.20;99.90;;;;;;5097758;28;20433;-86
2021/06/04 13:33:20;;;;;;;11.43;9.83;;;24.30;99.90;;;;;;5095586;28;21032;-88
2021/06/04 13:35:47;;;;;;;15.80;10.23;;;24.30;99.90;;;;;;5096115;28;20454;-87
2021/06/04 13:38:21;;;;;;;19.57;15.17;;;24.20;99.90;;;;;;5095342;28;20456;-87
2021/06/04 13:40:48;;;;;;;20.33;14.77;;;24.00;99.90;;;;;;5095183;28;20825;-87
2021/06/04 13:43:26;;;;;;;17.23;15.53;;;24.00;99.90;;;;;;5095879;28;20449;-87
2021/06/04 13:45:53;;;;;;;16.57;14.87;;;24.00;99.90;;;;;;5094749;28;20585;-88
2021/06/04 13:48:28;;;;;;;18.40;16.50;;;23.90;99.90;;;;;;5095234;28;20453;-85
2021/06/04 13:51:03;;;;;;;19.70;17.70;;;23.90;99.90;;;;;;5106322;28;20452;-86
2021/06/04 13:53:34;;;;;;;21.33;18.67;;;24.00;99.90;;;;;;5107297;28;20477;-87
2021/06/04 13:56:35;;;;;;;16.30;12.87;;;24.00;99.90;;;;;;5106106;28;20500;-86
2021/06/04 13:59:28;;;;;;;10.77;9.73;;;24.00;99.90;;;;;;5116630;28;20456;-85
2021/06/04 14:02:20;;;;;;;10.67;9.33;;;23.80;99.90;;;;;;5110048;28;20497;-86
2021/06/04 14:04:49;;;;;;;13.33;10.37;;;23.90;99.90;;;;;;5102980;28;20813;-86
2021/06/04 14:07:32;;;;;;;12.00;9.97;;;23.90;99.90;;;;;;5107545;28;20488;-85
2021/06/04 14:10:21;;;;;;;13.10;11.10;;;23.90;99.90;;;;;;5112353;28;20447;-83
2021/06/04 14:12:48;;;;;;;14.13;11.03;;;23.80;99.90;;;;;;5102523;28;20527;-85
2021/06/04 14:15:31;;;;;;;11.83;10.17;;;23.70;99.90;;;;;;5100547;28;20829;-86
2021/06/04 14:17:58;;;;;;;11.00;8.30;;;23.70;99.90;;;;;;5107476;28;20443;-85
2021/06/04 14:20:41;;;;;;;10.93;9.13;;;23.60;99.90;;;;;;5100680;28;20448;-86
2021/06/04 14:23:22;;;;;;;10.73;9.60;;;23.60;99.90;;;;;;5103024;28;20459;-85
2021/06/04 14:25:49;;;;;;;12.67;9.90;;;23.60;99.90;;;;;;5105722;28;20436;-83
2021/06/04 14:28:19;;;;;;;12.60;8.70;;;23.50;99.90;;;;;;5105625;28;20491;-84
2021/06/04 14:30:49;;;;;;;14.10;10.87;;;23.50;99.90;;;;;;5106483;28;20428;-88
2021/06/04 14:33:23;;;;;;;11.40;9.37;;;23.40;99.90;;;;;;5104681;28;20471;-88
2021/06/04 14:35:56;;;;;;;14.80;9.30;;;23.40;99.90;;;;;;5106431;28;20501;-88
2021/06/04 14:38:25;;;;;;;14.37;10.10;;;23.40;99.90;;;;;;5103031;28;20469;-88
2021/06/04 14:40:52;;;;;;;11.10;10.00;;;23.40;99.90;;;;;;5104714;28;20434;-88
2021/06/04 14:43:19;;;;;;;13.50;9.93;;;23.40;99.90;;;;;;5118035;28;21000;-88
2021/06/04 14:45:45;;;;;;;10.60;9.70;;;23.40;99.90;;;;;;5122692;28;20422;-88
2021/06/04 14:48:19;;;;;;;11.70;10.23;;;23.40;99.90;;;;;;5109036;28;20478;-86
2021/06/04 14:50:45;;;;;;;16.77;11.77;;;23.50;99.90;;;;;;5103988;28;20444;-85
2021/06/04 14:53:12;;;;;;;12.67;11.60;;;23.60;99.90;;;;;;5115476;28;20468;-86
2021/06/04 14:55:39;;;;;;;12.33;11.23;;;23.60;99.90;;;;;;5105701;28;20437;-86
2021/06/04 14:58:05;;;;;;;12.27;11.07;;;23.70;99.90;;;;;;5113780;28;20445;-88
2021/06/04 15:00:31;;;;;;;11.00;9.73;;;23.90;99.90;;;;;;5114468;28;20452;-86
2021/06/04 15:02:58;;;;;;;13.00;11.73;;;24.00;99.90;;;;;;5100280;28;20469;-87
2021/06/04 15:05:26;;;;;;;12.07;10.93;;;24.30;99.90;;;;;;5112809;28;20430;-87
2021/06/04 15:07:53;;;;;;;13.23;10.20;;;24.50;99.90;;;;;;5112463;28;20481;-87
2021/06/04 15:10:22;;;;;;;12.70;11.60;;;24.70;99.90;;;;;;5100980;28;20449;-87
2021/06/04 15:12:49;;;;;;;22.67;20.40;;;25.00;99.90;;;;;;5099387;28;20519;-87
2021/06/04 15:15:19;;;;;;;20.07;16.27;;;25.20;99.90;;;;;;5099895;28;20438;-88
2021/06/04 15:17:46;;;;;;;17.77;15.47;;;25.30;99.90;;;;;;5098297;28;20534;-88
2021/06/04 15:20:14;;;;;;;15.67;14.17;;;25.50;99.90;;;;;;5098890;28;20454;-88
2021/06/04 15:22:40;;;;;;;13.47;12.07;;;25.50;99.90;;;;;;5098203;28;20827;-88
2021/06/04 15:25:08;;;;;;;12.83;11.40;;;25.60;99.90;;;;;;5097190;28;20499;-88
2021/06/04 15:27:39;;;;;;;13.23;11.63;;;25.70;99.90;;;;;;5103743;28;20473;-88
2021/06/04 15:30:07;;;;;;;13.83;11.10;;;25.80;99.90;;;;;;5129243;28;20431;-88
2021/06/04 15:32:33;;;;;;;11.73;10.57;;;25.80;99.90;;;;;;5137327;28;20441;-88
2021/06/04 15:35:00;;;;;;;11.73;10.60;;;26.00;99.90;;;;;;5111547;28;20445;-88